createdAt,value
2023-02-26T00:01:49.031Z,4.40
2023-02-26T00:04:17.336Z,4.40
2023-02-26T00:06:56.847Z,4.40
2023-02-26T00:09:28.520Z,4.40
2023-02-26T00:11:57.210Z,4.40
2023-02-26T00:14:27.412Z,4.40
2023-02-26T00:17:08.442Z,4.40
2023-02-26T00:19:37.189Z,4.40
2023-02-26T00:22:06.436Z,4.40
2023-02-26T00:24:34.625Z,4.40
2023-02-26T00:27:02.830Z,4.40
2023-02-26T00:29:33.405Z,4.40
2023-02-26T00:32:02.373Z,4.40
2023-02-26T00:34:31.380Z,4.40
2023-02-26T00:37:11.208Z,4.40
2023-02-26T00:39:43.744Z,4.40
2023-02-26T00:42:13.016Z,4.40
2023-02-26T00:44:43.591Z,4.40
2023-02-26T00:47:17.830Z,4.40
2023-02-26T00:50:02.045Z,4.40
2023-02-26T00:52:36.373Z,4.40
2023-02-26T00:55:05.077Z,4.30
2023-02-26T00:57:33.311Z,4.30
2023-02-26T01:00:05.921Z,4.30
2023-02-26T01:02:35.133Z,4.20
2023-02-26T01:05:04.424Z,4.20
2023-02-26T01:07:38.975Z,4.20
2023-02-26T01:10:09.750Z,4.20
2023-02-26T01:12:38.758Z,4.20
2023-02-26T01:15:10.225Z,4.20
2023-02-26T01:17:43.778Z,4.20
2023-02-26T01:20:17.633Z,4.20
2023-02-26T01:22:50.127Z,4.20
2023-02-26T01:25:23.136Z,4.20
2023-02-26T01:27:51.888Z,4.20
2023-02-26T01:30:23.212Z,4.20
2023-02-26T01:32:56.015Z,4.20
2023-02-26T01:35:40.001Z,4.10
2023-02-26T01:38:20.624Z,4.10
2023-02-26T01:41:24.815Z,4.10
2023-02-26T01:44:01.273Z,4.10
2023-02-26T01:46:36.782Z,4.00
2023-02-26T01:49:05.362Z,4.00
2023-02-26T01:51:49.369Z,3.90
2023-02-26T01:54:20.674Z,3.90
2023-02-26T01:56:50.708Z,3.90
2023-02-26T01:59:24.358Z,3.90
2023-02-26T02:01:55.758Z,3.80
2023-02-26T02:04:23.991Z,3.80
2023-02-26T02:06:52.383Z,3.80
2023-02-26T02:09:21.312Z,3.80
2023-02-26T02:12:08.863Z,3.70
2023-02-26T02:14:48.040Z,3.70
2023-02-26T02:17:20.978Z,3.80
2023-02-26T02:20:25.698Z,3.80
2023-02-26T02:23:02.332Z,3.70
2023-02-26T02:25:52.163Z,3.70
2023-02-26T02:28:27.853Z,3.80
2023-02-26T02:31:06.760Z,3.80
2023-02-26T02:33:42.504Z,3.80
2023-02-26T02:36:14.642Z,3.80
2023-02-26T02:38:47.357Z,3.80
2023-02-26T02:41:19.291Z,3.80
2023-02-26T02:43:48.978Z,3.90
2023-02-26T02:46:21.912Z,3.90
2023-02-26T02:48:55.969Z,3.90
2023-02-26T02:51:33.793Z,3.90
2023-02-26T02:54:06.158Z,3.90
2023-02-26T02:56:36.944Z,3.90
2023-02-26T02:59:11.901Z,3.90
2023-02-26T03:01:41.375Z,3.90
2023-02-26T03:04:11.414Z,3.90
2023-02-26T03:06:39.801Z,3.90
2023-02-26T03:09:09.428Z,3.90
2023-02-26T03:11:37.764Z,3.90
2023-02-26T03:14:06.827Z,3.90
2023-02-26T03:20:11.315Z,3.90
2023-02-26T03:22:43.808Z,3.90
2023-02-26T03:25:19.759Z,3.90
2023-02-26T03:27:51.767Z,3.90
2023-02-26T03:30:23.885Z,3.90
2023-02-26T03:32:59.432Z,3.90
2023-02-26T03:35:32.893Z,3.90
2023-02-26T03:38:04.421Z,3.90
2023-02-26T03:40:35.556Z,3.90
2023-02-26T03:43:07.582Z,3.90
2023-02-26T03:45:36.645Z,3.90
2023-02-26T03:48:08.108Z,3.90
2023-02-26T03:50:38.985Z,3.90
2023-02-26T03:53:47.096Z,3.90
2023-02-26T03:56:21.112Z,3.90
2023-02-26T03:59:06.831Z,3.80
2023-02-26T04:01:51.792Z,3.80
2023-02-26T04:04:26.280Z,3.80
2023-02-26T04:06:55.157Z,3.80
2023-02-26T04:09:23.321Z,3.80
2023-02-26T04:11:52.291Z,3.80
2023-02-26T04:14:20.439Z,3.80
2023-02-26T04:16:49.457Z,3.80
2023-02-26T04:19:17.654Z,3.80
2023-02-26T04:21:47.855Z,3.80
2023-02-26T04:24:17.336Z,3.80
2023-02-26T04:26:46.404Z,3.70
2023-02-26T04:29:15.022Z,3.90
2023-02-26T04:31:43.223Z,3.70
2023-02-26T04:34:12.279Z,3.70
2023-02-26T04:36:40.722Z,3.70
2023-02-26T04:39:10.642Z,3.70
2023-02-26T04:41:39.121Z,3.60
2023-02-26T04:44:07.391Z,3.60
2023-02-26T04:46:38.076Z,3.60
2023-02-26T04:49:06.356Z,3.60
2023-02-26T04:51:34.596Z,3.60
2023-02-26T04:54:02.864Z,3.60
2023-02-26T04:56:33.544Z,3.60
2023-02-26T04:59:02.962Z,3.60
2023-02-26T05:01:32.365Z,3.60
2023-02-26T05:04:01.296Z,3.60
2023-02-26T05:06:29.575Z,3.60
2023-02-26T05:08:57.666Z,3.50
2023-02-26T05:11:25.786Z,3.60
2023-02-26T05:13:55.239Z,3.60
2023-02-26T05:16:23.638Z,3.60
2023-02-26T05:18:52.517Z,3.50
2023-02-26T05:21:21.852Z,3.50
2023-02-26T05:23:50.160Z,3.50
2023-02-26T05:26:18.667Z,3.50
2023-02-26T05:28:46.827Z,3.50
2023-02-26T05:31:16.422Z,3.50
2023-02-26T05:33:44.881Z,3.50
2023-02-26T05:36:13.783Z,3.50
2023-02-26T05:38:41.911Z,3.50
2023-02-26T05:41:10.026Z,3.40
2023-02-26T05:43:39.492Z,3.50
2023-02-26T05:46:07.595Z,3.40
2023-02-26T05:48:37.253Z,3.40
2023-02-26T05:51:05.682Z,3.40
2023-02-26T05:53:33.937Z,3.40
2023-02-26T05:56:02.093Z,3.40
2023-02-26T05:58:31.305Z,3.40
2023-02-26T06:00:59.962Z,3.40
2023-02-26T06:03:28.143Z,3.40
2023-02-26T06:05:57.677Z,3.40
2023-02-26T06:08:25.903Z,3.40
2023-02-26T06:10:54.087Z,3.30
2023-02-26T06:13:22.788Z,3.30
2023-02-26T06:15:52.209Z,3.30
2023-02-26T06:18:20.409Z,3.30
2023-02-26T06:20:48.559Z,3.30
2023-02-26T06:23:18.036Z,3.30
2023-02-26T06:25:46.297Z,3.30
2023-02-26T06:28:14.638Z,3.20
2023-02-26T06:30:42.814Z,3.20
2023-02-26T06:33:10.926Z,3.20
2023-02-26T06:35:39.220Z,3.20
2023-02-26T06:38:07.303Z,3.20
2023-02-26T06:40:36.961Z,3.20
2023-02-26T06:43:05.173Z,3.20
2023-02-26T06:45:33.357Z,3.20
2023-02-26T06:48:01.503Z,3.20
2023-02-26T06:50:29.680Z,3.20
2023-02-26T06:52:57.801Z,3.30
2023-02-26T06:55:26.893Z,3.30
2023-02-26T06:57:56.617Z,3.30
2023-02-26T07:00:25.372Z,3.30
2023-02-26T07:02:53.846Z,3.30
2023-02-26T07:05:21.964Z,3.30
2023-02-26T07:07:50.140Z,3.40
2023-02-26T07:10:21.429Z,3.40
2023-02-26T07:12:49.531Z,3.40
2023-02-26T07:15:19.203Z,3.50
2023-02-26T07:17:47.333Z,3.50
2023-02-26T07:20:15.486Z,3.50
2023-02-26T07:22:43.632Z,3.60
2023-02-26T07:25:12.198Z,3.70
2023-02-26T07:27:42.207Z,3.80
2023-02-26T07:30:13.432Z,3.90
2023-02-26T07:32:43.068Z,4.00
2023-02-26T07:35:11.382Z,4.10
2023-02-26T07:37:39.672Z,4.10
2023-02-26T07:40:09.662Z,4.20
2023-02-26T07:42:37.879Z,4.20
2023-02-26T07:45:08.047Z,4.30
2023-02-26T07:47:36.245Z,4.30
2023-02-26T07:50:07.025Z,4.30
2023-02-26T07:52:35.215Z,4.40
2023-02-26T07:55:03.366Z,4.40
2023-02-26T07:57:31.457Z,4.40
2023-02-26T07:59:59.599Z,4.50
2023-02-26T08:02:27.735Z,4.50
2023-02-26T08:04:55.864Z,4.60
2023-02-26T08:07:25.575Z,4.70
2023-02-26T08:09:53.877Z,5.20
2023-02-26T08:12:22.139Z,5.20
2023-02-26T08:14:50.583Z,5.40
2023-02-26T08:17:18.682Z,5.70
2023-02-26T08:19:46.789Z,6.10
2023-02-26T08:22:15.199Z,6.40
2023-02-26T08:24:44.745Z,6.90
2023-02-26T08:27:13.726Z,7.20
2023-02-26T08:29:42.719Z,7.50
2023-02-26T08:32:11.087Z,7.80
2023-02-26T08:34:39.309Z,8.10
2023-02-26T08:37:09.282Z,8.40
2023-02-26T08:39:38.853Z,8.70
2023-02-26T08:42:09.222Z,9.10
2023-02-26T08:44:37.437Z,9.40
2023-02-26T08:47:05.717Z,9.60
2023-02-26T08:49:33.874Z,9.90
2023-02-26T08:52:02.006Z,10.10
2023-02-26T08:54:30.207Z,10.30
2023-02-26T08:56:58.337Z,10.40
2023-02-26T08:59:27.866Z,10.50
2023-02-26T09:01:56.133Z,10.60
2023-02-26T09:04:24.406Z,10.60
2023-02-26T09:06:52.784Z,10.60
2023-02-26T09:09:21.198Z,10.60
2023-02-26T09:11:49.310Z,10.50
2023-02-26T09:14:17.715Z,10.40
2023-02-26T09:16:48.885Z,10.30
2023-02-26T09:19:18.166Z,10.30
2023-02-26T09:21:46.386Z,10.20
2023-02-26T09:24:14.798Z,10.10
2023-02-26T09:26:43.006Z,10.10
2023-02-26T09:29:11.519Z,10.00
2023-02-26T09:31:39.861Z,10.00
2023-02-26T09:34:11.413Z,10.00
2023-02-26T09:36:39.733Z,10.00
2023-02-26T09:39:08.637Z,9.90
2023-02-26T09:41:40.715Z,9.90
2023-02-26T09:44:19.534Z,9.90
2023-02-26T09:46:55.292Z,9.90
2023-02-26T09:49:50.869Z,10.00
2023-02-26T09:52:25.111Z,10.00
2023-02-26T09:54:55.081Z,10.10
2023-02-26T09:57:33.151Z,10.10
2023-02-26T10:00:01.326Z,10.20
2023-02-26T10:02:38.488Z,10.20
2023-02-26T10:05:19.397Z,10.30
2023-02-26T10:07:53.589Z,10.30
2023-02-26T10:10:30.341Z,10.30
2023-02-26T10:13:00.431Z,10.30
2023-02-26T10:15:31.275Z,10.30
2023-02-26T10:18:06.185Z,10.20
2023-02-26T10:20:44.986Z,10.10
2023-02-26T10:23:20.676Z,10.10
2023-02-26T10:25:53.395Z,10.00
2023-02-26T10:28:36.475Z,9.90
2023-02-26T10:31:08.490Z,9.80
2023-02-26T10:33:40.252Z,9.70
2023-02-26T10:36:18.301Z,9.60
2023-02-26T10:38:48.811Z,9.60
2023-02-26T10:41:19.227Z,9.60
2023-02-26T10:43:53.372Z,9.60
2023-02-26T10:46:30.961Z,9.60
2023-02-26T10:49:28.597Z,9.60
2023-02-26T10:51:58.509Z,9.50
2023-02-26T10:54:30.793Z,9.50
2023-02-26T10:56:59.071Z,9.40
2023-02-26T10:59:27.253Z,9.40
2023-02-26T11:01:55.394Z,9.40
2023-02-26T11:04:26.084Z,9.50
2023-02-26T11:06:56.276Z,9.70
2023-02-26T11:09:27.847Z,9.70
2023-02-26T11:11:58.410Z,9.80
2023-02-26T11:14:28.748Z,10.00
2023-02-26T11:16:59.783Z,10.10
2023-02-26T11:19:32.366Z,10.20
2023-02-26T11:22:01.063Z,10.30
2023-02-26T11:24:32.910Z,10.50
2023-02-26T11:27:04.383Z,10.60
2023-02-26T11:29:38.415Z,10.70
2023-02-26T11:32:07.129Z,10.90
2023-02-26T11:34:36.512Z,11.00
2023-02-26T11:37:04.709Z,11.10
2023-02-26T11:39:37.263Z,11.20
2023-02-26T11:42:05.821Z,11.20
2023-02-26T11:44:37.713Z,11.20
2023-02-26T11:47:09.237Z,11.10
2023-02-26T11:49:37.433Z,11.00
2023-02-26T11:52:24.172Z,10.90
2023-02-26T11:54:58.215Z,10.90
2023-02-26T11:57:29.034Z,10.90
2023-02-26T11:59:59.755Z,10.90
2023-02-26T12:02:32.601Z,10.80
2023-02-26T12:05:02.960Z,10.80
2023-02-26T12:07:31.353Z,10.70
2023-02-26T12:10:00.903Z,10.70
2023-02-26T12:12:45.389Z,10.60
2023-02-26T12:15:22.622Z,10.60
2023-02-26T12:18:05.513Z,10.60
2023-02-26T12:20:36.558Z,10.60
2023-02-26T12:23:22.625Z,10.50
2023-02-26T12:26:00.446Z,10.50
2023-02-26T12:28:49.014Z,10.50
2023-02-26T12:32:08.802Z,10.50
2023-02-26T12:37:36.928Z,10.70
2023-02-26T12:40:16.717Z,10.80
2023-02-26T12:42:53.022Z,10.90
2023-02-26T12:45:44.418Z,10.90
2023-02-26T12:48:42.775Z,11.10
2023-02-26T12:51:20.214Z,11.20
2023-02-26T12:53:59.234Z,11.00
2023-02-26T12:57:17.179Z,11.40
2023-02-26T13:00:23.499Z,11.50
2023-02-26T13:03:34.117Z,11.60
2023-02-26T13:06:28.836Z,11.60
2023-02-26T13:09:02.584Z,11.70
2023-02-26T13:11:44.647Z,11.80
2023-02-26T13:14:27.025Z,11.80
2023-02-26T13:17:02.306Z,11.90
2023-02-26T13:19:37.502Z,11.90
2023-02-26T13:22:09.815Z,12.00
2023-02-26T13:24:41.131Z,12.10
2023-02-26T13:27:09.790Z,12.10
2023-02-26T13:29:41.738Z,12.10
2023-02-26T13:32:13.928Z,12.10
2023-02-26T13:34:44.806Z,12.10
2023-02-26T13:37:22.873Z,12.00
2023-02-26T13:40:17.343Z,12.00
2023-02-26T13:42:49.268Z,12.00
2023-02-26T13:45:33.068Z,11.90
2023-02-26T13:48:11.546Z,11.90
2023-02-26T13:50:58.777Z,11.80
2023-02-26T13:53:52.754Z,11.70
2023-02-26T13:56:42.848Z,11.50
2023-02-26T13:59:31.489Z,11.30
2023-02-26T14:02:02.599Z,11.20
2023-02-26T14:04:32.772Z,11.00
2023-02-26T14:07:01.277Z,10.90
2023-02-26T14:09:55.299Z,10.70
2023-02-26T14:12:36.900Z,10.60
2023-02-26T14:15:40.325Z,10.50
2023-02-26T14:18:22.068Z,10.30
2023-02-26T14:20:52.290Z,10.10
2023-02-26T14:23:36.457Z,10.00
2023-02-26T14:26:18.389Z,9.90
2023-02-26T14:29:08.087Z,9.90
2023-02-26T14:31:56.370Z,9.90
2023-02-26T14:34:25.480Z,9.80
2023-02-26T14:36:56.180Z,9.80
2023-02-26T14:39:33.467Z,9.80
2023-02-26T14:42:04.684Z,9.70
2023-02-26T14:44:37.859Z,9.70
2023-02-26T14:47:06.202Z,9.60
2023-02-26T14:49:37.389Z,9.50
2023-02-26T14:52:36.198Z,9.50
2023-02-26T14:55:19.931Z,9.40
2023-02-26T14:57:54.468Z,9.40
2023-02-26T15:00:31.686Z,9.40
2023-02-26T15:03:31.098Z,9.30
2023-02-26T15:06:14.158Z,9.30
2023-02-26T15:08:56.831Z,9.20
2023-02-26T15:11:38.656Z,9.10
2023-02-26T15:14:27.812Z,9.10
2023-02-26T15:17:06.010Z,9.10
2023-02-26T15:19:45.777Z,9.10
2023-02-26T15:22:26.644Z,9.20
2023-02-26T15:24:56.133Z,9.30
2023-02-26T15:27:24.254Z,9.40
2023-02-26T15:29:53.522Z,9.50
2023-02-26T15:32:26.712Z,9.60
2023-02-26T15:35:01.249Z,9.60
2023-02-26T15:37:33.436Z,9.70
2023-02-26T15:40:05.557Z,9.80
2023-02-26T15:42:38.351Z,9.80
2023-02-26T15:45:11.012Z,9.80
2023-02-26T15:47:39.158Z,9.80
2023-02-26T15:50:08.439Z,9.80
2023-02-26T15:52:36.674Z,9.80
2023-02-26T15:55:07.946Z,9.80
2023-02-26T15:57:36.710Z,9.80
2023-02-26T16:00:10.424Z,9.80
2023-02-26T16:02:42.666Z,9.80
2023-02-26T16:05:13.188Z,9.80
2023-02-26T16:07:41.463Z,9.80
2023-02-26T16:10:18.185Z,9.80
2023-02-26T16:12:49.247Z,9.80
2023-02-26T16:15:19.936Z,9.70
2023-02-26T16:17:50.779Z,9.70
2023-02-26T16:20:20.784Z,9.60
2023-02-26T16:22:51.190Z,9.50
2023-02-26T16:25:25.430Z,9.40
2023-02-26T16:27:57.856Z,9.40
2023-02-26T16:30:30.250Z,9.40
2023-02-26T16:32:58.399Z,9.40
2023-02-26T16:35:30.699Z,9.30
2023-02-26T16:37:59.027Z,9.30
2023-02-26T16:40:29.786Z,9.40
2023-02-26T16:43:03.185Z,9.30
2023-02-26T16:45:50.806Z,9.30
2023-02-26T16:48:24.978Z,9.30
2023-02-26T16:51:00.088Z,9.20
2023-02-26T16:53:34.820Z,9.10
2023-02-26T16:56:04.887Z,9.00
2023-02-26T16:58:33.044Z,8.90
2023-02-26T17:01:09.333Z,8.90
2023-02-26T17:03:38.489Z,8.80
2023-02-26T17:06:09.214Z,8.70
2023-02-26T17:08:45.082Z,8.60
2023-02-26T17:11:22.402Z,8.50
2023-02-26T17:14:11.273Z,8.50
2023-02-26T17:16:39.492Z,8.40
2023-02-26T17:19:09.453Z,8.40
2023-02-26T17:21:38.903Z,8.30
2023-02-26T17:24:07.705Z,8.30
2023-02-26T17:26:37.160Z,8.20
2023-02-26T17:29:05.376Z,8.20
2023-02-26T17:31:33.538Z,8.20
2023-02-26T17:34:01.735Z,8.10
2023-02-26T17:36:30.643Z,8.10
2023-02-26T17:38:58.805Z,8.00
2023-02-26T17:41:28.502Z,8.00
2023-02-26T17:43:58.212Z,7.90
2023-02-26T17:46:26.509Z,7.90
2023-02-26T17:48:55.011Z,7.80
2023-02-26T17:51:23.384Z,7.80
2023-02-26T17:53:51.634Z,7.80
2023-02-26T17:56:26.871Z,7.70
2023-02-26T17:58:55.489Z,7.70
2023-02-26T18:01:26.661Z,7.70
2023-02-26T18:03:55.132Z,7.80
2023-02-26T18:06:23.584Z,7.60
2023-02-26T18:08:52.324Z,7.50
2023-02-26T18:11:23.162Z,7.50
2023-02-26T18:13:51.418Z,7.50
2023-02-26T18:16:22.391Z,7.40
2023-02-26T18:18:52.134Z,7.40
2023-02-26T18:21:20.542Z,7.40
2023-02-26T18:23:48.745Z,7.30
2023-02-26T18:26:16.956Z,7.30
2023-02-26T18:28:45.244Z,7.20
2023-02-26T18:31:13.761Z,7.20
2023-02-26T18:33:44.359Z,7.20
2023-02-26T18:36:17.517Z,7.10
2023-02-26T18:38:45.795Z,7.10
2023-02-26T18:41:13.981Z,7.10
2023-02-26T18:43:42.776Z,7.10
2023-02-26T18:46:10.940Z,7.10
2023-02-26T18:48:39.100Z,7.10
2023-02-26T18:51:07.834Z,7.00
2023-02-26T18:53:37.546Z,7.00
2023-02-26T18:56:06.443Z,7.00
2023-02-26T18:58:34.568Z,6.90
2023-02-26T19:01:04.724Z,6.90
2023-02-26T19:03:33.068Z,6.90
2023-02-26T19:06:03.104Z,6.80
2023-02-26T19:08:31.323Z,6.80
2023-02-26T19:11:00.824Z,6.70
2023-02-26T19:13:29.076Z,6.70
2023-02-26T19:15:57.495Z,6.60
2023-02-26T19:18:25.734Z,6.60
2023-02-26T19:20:53.863Z,6.50
2023-02-26T19:23:21.964Z,6.50
2023-02-26T19:25:51.585Z,6.40
2023-02-26T19:28:21.045Z,6.40
2023-02-26T19:30:49.306Z,6.30
2023-02-26T19:33:20.374Z,6.30
2023-02-26T19:35:48.556Z,6.20
2023-02-26T19:38:16.941Z,6.20
2023-02-26T19:40:45.402Z,6.10
2023-02-26T19:43:13.492Z,6.10
2023-02-26T19:45:42.931Z,6.00
2023-02-26T19:48:11.107Z,6.00
2023-02-26T19:50:39.221Z,5.90
2023-02-26T19:53:07.346Z,5.90
2023-02-26T19:55:35.447Z,5.80
2023-02-26T19:58:03.579Z,5.80
2023-02-26T20:00:31.828Z,5.80
2023-02-26T20:03:01.469Z,5.70
2023-02-26T20:05:29.823Z,5.70
2023-02-26T20:07:58.350Z,5.80
2023-02-26T20:10:26.794Z,5.60
2023-02-26T20:12:56.011Z,5.60
2023-02-26T20:15:24.133Z,5.50
2023-02-26T20:17:52.318Z,5.50
2023-02-26T20:20:22.963Z,5.50
2023-02-26T20:22:51.190Z,5.50
2023-02-26T20:25:20.337Z,5.50
2023-02-26T20:27:48.452Z,5.40
2023-02-26T20:30:16.847Z,5.40
2023-02-26T20:32:45.184Z,5.30
2023-02-26T20:35:13.522Z,5.30
2023-02-26T20:37:43.011Z,5.30
2023-02-26T20:40:12.900Z,5.20
2023-02-26T20:42:41.038Z,5.20
2023-02-26T20:45:09.768Z,5.20
2023-02-26T20:47:37.912Z,5.10
2023-02-26T20:50:07.509Z,5.10
2023-02-26T20:52:35.570Z,5.00
2023-02-26T20:55:05.903Z,5.10
2023-02-26T20:57:35.353Z,5.00
2023-02-26T21:00:10.152Z,5.00
2023-02-26T21:02:38.546Z,5.00
2023-02-26T21:05:07.868Z,4.90
2023-02-26T21:07:36.086Z,5.10
2023-02-26T21:10:06.654Z,4.90
2023-02-26T21:12:35.543Z,4.90
2023-02-26T21:15:03.811Z,4.90
2023-02-26T21:17:32.814Z,4.80
2023-02-26T21:20:00.980Z,4.80
2023-02-26T21:22:29.098Z,4.80
2023-02-26T21:24:57.202Z,4.80
2023-02-26T21:27:26.752Z,4.80
2023-02-26T21:29:54.844Z,4.80
2023-02-26T21:32:22.974Z,4.80
2023-02-26T21:34:51.117Z,4.70
2023-02-26T21:37:19.215Z,4.80
2023-02-26T21:39:48.151Z,4.70
2023-02-26T21:42:16.303Z,4.80
2023-02-26T21:44:47.050Z,4.70
2023-02-26T21:47:16.703Z,4.80
2023-02-26T21:49:44.875Z,4.80
2023-02-26T21:52:13.216Z,4.80
2023-02-26T21:54:41.411Z,4.70
2023-02-26T21:57:09.655Z,4.70
2023-02-26T21:59:37.916Z,4.80
2023-02-26T22:02:07.606Z,4.80
2023-02-26T22:04:36.574Z,4.70
2023-02-26T22:07:04.723Z,4.70
2023-02-26T22:09:32.840Z,4.70
2023-02-26T22:12:00.952Z,4.70
2023-02-26T22:14:29.268Z,4.60
2023-02-26T22:16:57.481Z,4.70
2023-02-26T22:19:27.390Z,4.60
2023-02-26T22:21:55.540Z,4.60
2023-02-26T22:24:23.807Z,4.60
2023-02-26T22:26:51.983Z,4.60
2023-02-26T22:29:20.296Z,4.60
2023-02-26T22:31:48.513Z,4.60
2023-02-26T22:34:16.975Z,4.50
2023-02-26T22:36:46.710Z,4.60
2023-02-26T22:39:14.848Z,4.50
2023-02-26T22:41:43.111Z,4.50
2023-02-26T22:44:11.844Z,4.50
2023-02-26T22:46:39.955Z,4.50
2023-02-26T22:49:08.141Z,4.50
2023-02-26T22:51:36.324Z,4.50
2023-02-26T22:54:06.277Z,4.50
2023-02-26T22:56:34.458Z,4.50
2023-02-26T22:59:02.733Z,4.40
2023-02-26T23:01:30.962Z,4.40
2023-02-26T23:03:59.611Z,4.40
2023-02-26T23:06:27.951Z,4.40
2023-02-26T23:08:56.091Z,4.40
2023-02-26T23:11:25.946Z,4.40
2023-02-26T23:13:54.232Z,4.30
2023-02-26T23:16:22.409Z,4.30
2023-02-26T23:18:50.504Z,4.30
2023-02-26T23:21:18.610Z,4.30
2023-02-26T23:23:46.732Z,4.30
2023-02-26T23:26:14.890Z,4.30
2023-02-26T23:28:44.372Z,4.20
2023-02-26T23:31:12.663Z,4.30
2023-02-26T23:33:40.895Z,4.20
2023-02-26T23:36:10.118Z,4.20
2023-02-26T23:38:38.489Z,4.20
2023-02-26T23:41:06.754Z,4.20
2023-02-26T23:43:34.946Z,4.20
2023-02-26T23:46:05.493Z,4.20
2023-02-26T23:48:33.670Z,4.20
2023-02-26T23:51:01.782Z,4.20
2023-02-26T23:53:29.959Z,4.20
2023-02-26T23:55:58.885Z,4.10
2023-02-26T23:58:27.509Z,4.10
